sensor_id;sensor_type;location;lat;lon;timestamp;P1;durP1;ratioP1;P2;durP2;ratioP2
56493;SDS011;42392;42.648;27.652;2024-02-21T00:00:15;30.50;;;12.77;;
56493;SDS011;42392;42.648;27.652;2024-02-21T00:02:18;24.90;;;12.18;;
56493;SDS011;42392;42.648;27.652;2024-02-21T00:04:22;26.00;;;13.02;;
56493;SDS011;42392;42.648;27.652;2024-02-21T00:06:27;33.70;;;18.00;;
56493;SDS011;42392;42.648;27.652;2024-02-21T00:08:29;26.95;;;14.38;;
56493;SDS011;42392;42.648;27.652;2024-02-21T00:10:31;24.58;;;12.25;;
56493;SDS011;42392;42.648;27.652;2024-02-21T00:12:34;35.25;;;16.63;;
56493;SDS011;42392;42.648;27.652;2024-02-21T00:14:42;28.55;;;15.55;;
56493;SDS011;42392;42.648;27.652;2024-02-21T00:17:02;33.83;;;17.98;;
56493;SDS011;42392;42.648;27.652;2024-02-21T00:19:04;30.55;;;18.50;;
56493;SDS011;42392;42.648;27.652;2024-02-21T00:21:06;48.15;;;20.77;;
56493;SDS011;42392;42.648;27.652;2024-02-21T00:23:19;28.55;;;15.10;;
56493;SDS011;42392;42.648;27.652;2024-02-21T00:25:21;32.90;;;15.18;;
56493;SDS011;42392;42.648;27.652;2024-02-21T00:27:24;28.80;;;14.63;;
56493;SDS011;42392;42.648;27.652;2024-02-21T00:29:26;28.60;;;15.48;;
56493;SDS011;42392;42.648;27.652;2024-02-21T00:31:28;41.78;;;21.75;;
56493;SDS011;42392;42.648;27.652;2024-02-21T00:33:30;47.20;;;24.45;;
56493;SDS011;42392;42.648;27.652;2024-02-21T00:35:33;32.25;;;17.88;;
56493;SDS011;42392;42.648;27.652;2024-02-21T00:37:35;34.80;;;18.98;;
56493;SDS011;42392;42.648;27.652;2024-02-21T00:39:38;87.47;;;39.38;;
56493;SDS011;42392;42.648;27.652;2024-02-21T00:41:40;32.42;;;17.13;;
56493;SDS011;42392;42.648;27.652;2024-02-21T00:43:42;26.25;;;14.10;;
56493;SDS011;42392;42.648;27.652;2024-02-21T00:45:44;38.50;;;20.00;;
56493;SDS011;42392;42.648;27.652;2024-02-21T00:47:46;55.05;;;23.20;;
56493;SDS011;42392;42.648;27.652;2024-02-21T00:49:49;28.92;;;14.82;;
56493;SDS011;42392;42.648;27.652;2024-02-21T00:51:51;25.02;;;13.00;;
56493;SDS011;42392;42.648;27.652;2024-02-21T00:53:53;25.20;;;13.80;;
56493;SDS011;42392;42.648;27.652;2024-02-21T00:55:56;26.85;;;14.25;;
56493;SDS011;42392;42.648;27.652;2024-02-21T00:57:58;305.35;;;107.60;;
56493;SDS011;42392;42.648;27.652;2024-02-21T01:00:01;48.30;;;21.20;;
56493;SDS011;42392;42.648;27.652;2024-02-21T01:02:07;88.05;;;37.20;;
56493;SDS011;42392;42.648;27.652;2024-02-21T01:04:09;103.03;;;42.03;;
56493;SDS011;42392;42.648;27.652;2024-02-21T01:06:12;72.10;;;32.13;;
56493;SDS011;42392;42.648;27.652;2024-02-21T01:08:14;24.52;;;13.32;;
56493;SDS011;42392;42.648;27.652;2024-02-21T01:10:16;17.45;;;9.93;;
56493;SDS011;42392;42.648;27.652;2024-02-21T01:12:18;18.85;;;9.85;;
56493;SDS011;42392;42.648;27.652;2024-02-21T01:14:32;19.77;;;11.05;;
56493;SDS011;42392;42.648;27.652;2024-02-21T01:16:42;23.35;;;12.18;;
56493;SDS011;42392;42.648;27.652;2024-02-21T01:18:44;18.13;;;10.00;;
56493;SDS011;42392;42.648;27.652;2024-02-21T01:20:46;20.23;;;10.55;;
56493;SDS011;42392;42.648;27.652;2024-02-21T01:22:48;27.38;;;14.00;;
56493;SDS011;42392;42.648;27.652;2024-02-21T01:24:50;25.95;;;12.82;;
56493;SDS011;42392;42.648;27.652;2024-02-21T01:26:52;25.38;;;11.95;;
56493;SDS011;42392;42.648;27.652;2024-02-21T01:28:54;22.42;;;11.38;;
56493;SDS011;42392;42.648;27.652;2024-02-21T01:30:57;21.92;;;11.18;;
56493;SDS011;42392;42.648;27.652;2024-02-21T01:32:59;20.30;;;10.10;;
56493;SDS011;42392;42.648;27.652;2024-02-21T01:35:01;19.52;;;10.85;;
56493;SDS011;42392;42.648;27.652;2024-02-21T01:37:03;23.08;;;11.80;;
56493;SDS011;42392;42.648;27.652;2024-02-21T01:39:08;21.52;;;10.82;;
56493;SDS011;42392;42.648;27.652;2024-02-21T01:41:10;20.67;;;10.90;;
56493;SDS011;42392;42.648;27.652;2024-02-21T01:43:16;24.48;;;13.90;;
56493;SDS011;42392;42.648;27.652;2024-02-21T01:45:22;24.60;;;14.35;;
56493;SDS011;42392;42.648;27.652;2024-02-21T01:47:24;23.67;;;12.13;;
56493;SDS011;42392;42.648;27.652;2024-02-21T01:49:26;24.05;;;12.65;;
56493;SDS011;42392;42.648;27.652;2024-02-21T01:51:28;21.10;;;11.38;;
56493;SDS011;42392;42.648;27.652;2024-02-21T01:53:32;20.67;;;10.95;;
56493;SDS011;42392;42.648;27.652;2024-02-21T01:55:38;24.77;;;12.18;;
56493;SDS011;42392;42.648;27.652;2024-02-21T01:57:43;23.88;;;11.38;;
56493;SDS011;42392;42.648;27.652;2024-02-21T01:59:48;21.05;;;9.75;;
56493;SDS011;42392;42.648;27.652;2024-02-21T02:01:51;23.10;;;12.20;;
56493;SDS011;42392;42.648;27.652;2024-02-21T02:03:54;24.75;;;11.25;;
56493;SDS011;42392;42.648;27.652;2024-02-21T02:05:57;20.98;;;10.52;;
56493;SDS011;42392;42.648;27.652;2024-02-21T02:07:59;22.02;;;11.07;;
56493;SDS011;42392;42.648;27.652;2024-02-21T02:10:02;21.60;;;11.25;;
56493;SDS011;42392;42.648;27.652;2024-02-21T02:12:04;24.05;;;9.70;;
56493;SDS011;42392;42.648;27.652;2024-02-21T02:14:06;20.00;;;9.38;;
56493;SDS011;42392;42.648;27.652;2024-02-21T02:16:09;18.38;;;10.68;;
56493;SDS011;42392;42.648;27.652;2024-02-21T02:18:11;19.40;;;10.20;;
56493;SDS011;42392;42.648;27.652;2024-02-21T02:20:14;23.13;;;11.77;;
56493;SDS011;42392;42.648;27.652;2024-02-21T02:22:22;26.30;;;13.63;;
56493;SDS011;42392;42.648;27.652;2024-02-21T02:24:35;25.42;;;13.25;;
56493;SDS011;42392;42.648;27.652;2024-02-21T02:26:37;29.45;;;16.13;;
56493;SDS011;42392;42.648;27.652;2024-02-21T02:28:39;28.25;;;14.07;;
56493;SDS011;42392;42.648;27.652;2024-02-21T02:30:41;28.40;;;17.52;;
56493;SDS011;42392;42.648;27.652;2024-02-21T02:32:44;30.00;;;17.55;;
56493;SDS011;42392;42.648;27.652;2024-02-21T02:34:50;25.67;;;14.43;;
56493;SDS011;42392;42.648;27.652;2024-02-21T02:36:52;23.20;;;11.48;;
56493;SDS011;42392;42.648;27.652;2024-02-21T02:38:56;21.35;;;11.80;;
56493;SDS011;42392;42.648;27.652;2024-02-21T02:40:58;22.42;;;12.98;;
56493;SDS011;42392;42.648;27.652;2024-02-21T02:43:00;22.95;;;12.55;;
56493;SDS011;42392;42.648;27.652;2024-02-21T02:45:02;24.95;;;13.70;;
56493;SDS011;42392;42.648;27.652;2024-02-21T02:47:05;21.92;;;11.57;;
56493;SDS011;42392;42.648;27.652;2024-02-21T02:49:07;19.75;;;9.77;;
56493;SDS011;42392;42.648;27.652;2024-02-21T02:51:09;22.55;;;11.98;;
56493;SDS011;42392;42.648;27.652;2024-02-21T02:53:11;19.95;;;11.27;;
56493;SDS011;42392;42.648;27.652;2024-02-21T02:55:13;20.00;;;10.85;;
56493;SDS011;42392;42.648;27.652;2024-02-21T02:57:15;23.23;;;11.52;;
56493;SDS011;42392;42.648;27.652;2024-02-21T02:59:18;33.58;;;13.43;;
56493;SDS011;42392;42.648;27.652;2024-02-21T03:01:20;29.88;;;12.50;;
56493;SDS011;42392;42.648;27.652;2024-02-21T03:03:22;23.92;;;11.70;;
56493;SDS011;42392;42.648;27.652;2024-02-21T03:05:24;23.63;;;11.35;;
56493;SDS011;42392;42.648;27.652;2024-02-21T03:07:27;19.42;;;10.43;;
56493;SDS011;42392;42.648;27.652;2024-02-21T03:09:29;20.88;;;11.48;;
56493;SDS011;42392;42.648;27.652;2024-02-21T03:11:31;22.23;;;11.27;;
56493;SDS011;42392;42.648;27.652;2024-02-21T03:13:34;20.08;;;11.10;;
56493;SDS011;42392;42.648;27.652;2024-02-21T03:15:36;20.45;;;10.30;;
56493;SDS011;42392;42.648;27.652;2024-02-21T03:17:38;20.77;;;10.20;;
56493;SDS011;42392;42.648;27.652;2024-02-21T03:19:42;19.00;;;9.63;;
56493;SDS011;42392;42.648;27.652;2024-02-21T03:21:44;28.45;;;15.32;;
56493;SDS011;42392;42.648;27.652;2024-02-21T03:23:47;22.25;;;12.68;;
56493;SDS011;42392;42.648;27.652;2024-02-21T03:25:49;22.88;;;13.85;;
56493;SDS011;42392;42.648;27.652;2024-02-21T03:27:51;22.80;;;11.55;;
56493;SDS011;42392;42.648;27.652;2024-02-21T03:29:53;25.45;;;12.18;;
56493;SDS011;42392;42.648;27.652;2024-02-21T03:31:55;25.02;;;13.13;;
56493;SDS011;42392;42.648;27.652;2024-02-21T03:33:57;31.63;;;16.38;;
56493;SDS011;42392;42.648;27.652;2024-02-21T03:35:59;39.25;;;22.20;;
56493;SDS011;42392;42.648;27.652;2024-02-21T03:38:01;34.72;;;17.73;;
56493;SDS011;42392;42.648;27.652;2024-02-21T03:40:08;28.90;;;17.45;;
56493;SDS011;42392;42.648;27.652;2024-02-21T03:42:11;17.88;;;9.23;;
56493;SDS011;42392;42.648;27.652;2024-02-21T03:44:13;14.63;;;8.52;;
56493;SDS011;42392;42.648;27.652;2024-02-21T03:46:15;16.83;;;9.10;;
56493;SDS011;42392;42.648;27.652;2024-02-21T03:48:17;17.45;;;8.52;;
56493;SDS011;42392;42.648;27.652;2024-02-21T03:50:19;15.65;;;8.13;;
56493;SDS011;42392;42.648;27.652;2024-02-21T03:52:21;17.50;;;8.23;;
56493;SDS011;42392;42.648;27.652;2024-02-21T03:54:24;16.55;;;8.43;;
56493;SDS011;42392;42.648;27.652;2024-02-21T03:56:26;17.50;;;8.80;;
56493;SDS011;42392;42.648;27.652;2024-02-21T03:58:29;30.17;;;18.35;;
56493;SDS011;42392;42.648;27.652;2024-02-21T04:02:36;26.52;;;11.43;;
56493;SDS011;42392;42.648;27.652;2024-02-21T04:04:42;26.55;;;13.27;;
56493;SDS011;42392;42.648;27.652;2024-02-21T04:06:50;28.85;;;15.80;;
56493;SDS011;42392;42.648;27.652;2024-02-21T04:08:52;26.65;;;16.13;;
56493;SDS011;42392;42.648;27.652;2024-02-21T04:10:55;25.33;;;13.93;;
56493;SDS011;42392;42.648;27.652;2024-02-21T04:12:57;20.70;;;10.75;;
56493;SDS011;42392;42.648;27.652;2024-02-21T04:14:59;22.05;;;12.30;;
56493;SDS011;42392;42.648;27.652;2024-02-21T04:17:01;16.20;;;7.97;;
56493;SDS011;42392;42.648;27.652;2024-02-21T04:19:03;18.52;;;9.40;;
56493;SDS011;42392;42.648;27.652;2024-02-21T04:21:05;15.77;;;8.23;;
56493;SDS011;42392;42.648;27.652;2024-02-21T04:23:07;17.42;;;7.88;;
56493;SDS011;42392;42.648;27.652;2024-02-21T04:25:10;21.23;;;9.82;;
56493;SDS011;42392;42.648;27.652;2024-02-21T04:27:17;18.90;;;9.45;;
56493;SDS011;42392;42.648;27.652;2024-02-21T04:29:19;21.95;;;10.30;;
56493;SDS011;42392;42.648;27.652;2024-02-21T04:31:21;20.83;;;10.82;;
56493;SDS011;42392;42.648;27.652;2024-02-21T04:33:24;21.67;;;11.63;;
56493;SDS011;42392;42.648;27.652;2024-02-21T04:35:26;21.67;;;11.32;;
56493;SDS011;42392;42.648;27.652;2024-02-21T04:37:29;22.20;;;12.32;;
56493;SDS011;42392;42.648;27.652;2024-02-21T04:39:32;23.40;;;12.27;;
56493;SDS011;42392;42.648;27.652;2024-02-21T04:41:34;31.65;;;14.55;;
56493;SDS011;42392;42.648;27.652;2024-02-21T04:43:37;32.20;;;14.18;;
56493;SDS011;42392;42.648;27.652;2024-02-21T04:45:39;24.67;;;12.57;;
56493;SDS011;42392;42.648;27.652;2024-02-21T04:47:42;21.90;;;12.30;;
56493;SDS011;42392;42.648;27.652;2024-02-21T04:49:45;26.40;;;14.07;;
56493;SDS011;42392;42.648;27.652;2024-02-21T04:51:48;97.00;;;39.38;;
56493;SDS011;42392;42.648;27.652;2024-02-21T04:53:50;150.25;;;63.17;;
56493;SDS011;42392;42.648;27.652;2024-02-21T04:55:53;39.33;;;21.67;;
56493;SDS011;42392;42.648;27.652;2024-02-21T04:57:56;23.95;;;11.98;;
56493;SDS011;42392;42.648;27.652;2024-02-21T04:59:58;21.15;;;10.80;;
56493;SDS011;42392;42.648;27.652;2024-02-21T05:02:01;21.90;;;10.80;;
56493;SDS011;42392;42.648;27.652;2024-02-21T05:04:04;45.33;;;19.83;;
56493;SDS011;42392;42.648;27.652;2024-02-21T05:06:06;29.25;;;15.85;;
56493;SDS011;42392;42.648;27.652;2024-02-21T05:08:12;21.58;;;10.70;;
56493;SDS011;42392;42.648;27.652;2024-02-21T05:10:14;20.58;;;9.82;;
56493;SDS011;42392;42.648;27.652;2024-02-21T05:12:16;30.45;;;14.57;;
56493;SDS011;42392;42.648;27.652;2024-02-21T05:14:18;37.70;;;20.15;;
56493;SDS011;42392;42.648;27.652;2024-02-21T05:16:20;62.30;;;34.42;;
56493;SDS011;42392;42.648;27.652;2024-02-21T05:18:22;38.35;;;21.50;;
56493;SDS011;42392;42.648;27.652;2024-02-21T05:20:25;111.85;;;47.42;;
56493;SDS011;42392;42.648;27.652;2024-02-21T05:22:27;132.63;;;57.42;;
56493;SDS011;42392;42.648;27.652;2024-02-21T05:24:29;112.22;;;51.60;;
56493;SDS011;42392;42.648;27.652;2024-02-21T05:26:31;57.30;;;29.65;;
56493;SDS011;42392;42.648;27.652;2024-02-21T05:28:33;60.42;;;26.80;;
56493;SDS011;42392;42.648;27.652;2024-02-21T05:30:36;57.72;;;28.67;;
56493;SDS011;42392;42.648;27.652;2024-02-21T05:32:38;53.38;;;28.73;;
56493;SDS011;42392;42.648;27.652;2024-02-21T05:34:40;46.95;;;21.35;;
56493;SDS011;42392;42.648;27.652;2024-02-21T05:36:42;38.63;;;16.52;;
56493;SDS011;42392;42.648;27.652;2024-02-21T05:38:44;41.00;;;19.35;;
56493;SDS011;42392;42.648;27.652;2024-02-21T05:40:47;34.60;;;17.70;;
56493;SDS011;42392;42.648;27.652;2024-02-21T05:42:49;32.47;;;16.55;;
56493;SDS011;42392;42.648;27.652;2024-02-21T05:44:53;29.13;;;15.93;;
56493;SDS011;42392;42.648;27.652;2024-02-21T05:46:55;27.02;;;14.20;;
56493;SDS011;42392;42.648;27.652;2024-02-21T05:48:57;75.55;;;37.42;;
56493;SDS011;42392;42.648;27.652;2024-02-21T05:51:01;69.10;;;35.40;;
56493;SDS011;42392;42.648;27.652;2024-02-21T05:53:04;51.33;;;27.55;;
56493;SDS011;42392;42.648;27.652;2024-02-21T05:55:07;37.70;;;21.80;;
56493;SDS011;42392;42.648;27.652;2024-02-21T05:57:10;33.97;;;20.15;;
56493;SDS011;42392;42.648;27.652;2024-02-21T05:59:12;32.97;;;20.52;;
56493;SDS011;42392;42.648;27.652;2024-02-21T06:01:14;39.55;;;24.48;;
56493;SDS011;42392;42.648;27.652;2024-02-21T06:03:17;41.20;;;25.63;;
56493;SDS011;42392;42.648;27.652;2024-02-21T06:05:19;42.17;;;25.77;;
56493;SDS011;42392;42.648;27.652;2024-02-21T06:07:21;44.97;;;24.90;;
56493;SDS011;42392;42.648;27.652;2024-02-21T06:09:23;33.83;;;17.95;;
56493;SDS011;42392;42.648;27.652;2024-02-21T06:11:25;48.55;;;21.45;;
56493;SDS011;42392;42.648;27.652;2024-02-21T06:13:28;33.85;;;17.42;;
56493;SDS011;42392;42.648;27.652;2024-02-21T06:15:30;33.13;;;16.17;;
56493;SDS011;42392;42.648;27.652;2024-02-21T06:17:32;34.22;;;19.65;;
56493;SDS011;42392;42.648;27.652;2024-02-21T06:19:34;34.25;;;19.90;;
56493;SDS011;42392;42.648;27.652;2024-02-21T06:21:36;25.77;;;15.73;;
56493;SDS011;42392;42.648;27.652;2024-02-21T06:23:39;22.95;;;13.07;;
56493;SDS011;42392;42.648;27.652;2024-02-21T06:25:41;40.08;;;19.42;;
56493;SDS011;42392;42.648;27.652;2024-02-21T06:27:43;23.92;;;13.10;;
56493;SDS011;42392;42.648;27.652;2024-02-21T06:29:46;44.10;;;21.27;;
56493;SDS011;42392;42.648;27.652;2024-02-21T06:31:48;50.15;;;26.85;;
56493;SDS011;42392;42.648;27.652;2024-02-21T06:33:50;48.38;;;29.42;;
56493;SDS011;42392;42.648;27.652;2024-02-21T06:35:52;45.60;;;26.63;;
56493;SDS011;42392;42.648;27.652;2024-02-21T06:37:55;37.97;;;25.23;;
56493;SDS011;42392;42.648;27.652;2024-02-21T06:39:57;46.95;;;27.77;;
56493;SDS011;42392;42.648;27.652;2024-02-21T06:42:00;91.90;;;56.92;;
56493;SDS011;42392;42.648;27.652;2024-02-21T06:44:04;101.38;;;55.47;;
56493;SDS011;42392;42.648;27.652;2024-02-21T06:46:07;243.90;;;123.20;;
56493;SDS011;42392;42.648;27.652;2024-02-21T06:48:08;102.95;;;56.20;;
56493;SDS011;42392;42.648;27.652;2024-02-21T06:50:11;72.10;;;35.03;;
56493;SDS011;42392;42.648;27.652;2024-02-21T06:52:13;74.97;;;36.65;;
56493;SDS011;42392;42.648;27.652;2024-02-21T06:54:18;57.45;;;30.35;;
56493;SDS011;42392;42.648;27.652;2024-02-21T06:56:22;47.70;;;27.80;;
56493;SDS011;42392;42.648;27.652;2024-02-21T06:58:30;47.28;;;27.23;;
56493;SDS011;42392;42.648;27.652;2024-02-21T07:00:32;59.75;;;28.48;;
56493;SDS011;42392;42.648;27.652;2024-02-21T07:02:35;45.95;;;23.17;;
56493;SDS011;42392;42.648;27.652;2024-02-21T07:04:37;66.97;;;31.33;;
56493;SDS011;42392;42.648;27.652;2024-02-21T07:06:39;91.55;;;42.42;;
56493;SDS011;42392;42.648;27.652;2024-02-21T07:08:41;45.10;;;24.38;;
56493;SDS011;42392;42.648;27.652;2024-02-21T07:10:44;35.13;;;20.13;;
56493;SDS011;42392;42.648;27.652;2024-02-21T07:12:46;37.15;;;24.45;;
56493;SDS011;42392;42.648;27.652;2024-02-21T07:14:48;34.78;;;22.17;;
56493;SDS011;42392;42.648;27.652;2024-02-21T07:16:50;40.75;;;25.08;;
56493;SDS011;42392;42.648;27.652;2024-02-21T07:18:52;32.42;;;19.55;;
56493;SDS011;42392;42.648;27.652;2024-02-21T07:20:55;43.15;;;24.70;;
56493;SDS011;42392;42.648;27.652;2024-02-21T07:22:57;43.78;;;23.95;;
56493;SDS011;42392;42.648;27.652;2024-02-21T07:25:00;62.75;;;37.90;;
56493;SDS011;42392;42.648;27.652;2024-02-21T07:27:18;64.43;;;43.25;;
56493;SDS011;42392;42.648;27.652;2024-02-21T07:29:20;85.15;;;55.90;;
56493;SDS011;42392;42.648;27.652;2024-02-21T07:31:22;103.07;;;71.47;;
56493;SDS011;42392;42.648;27.652;2024-02-21T07:33:24;90.35;;;66.05;;
56493;SDS011;42392;42.648;27.652;2024-02-21T07:35:27;89.20;;;59.10;;
56493;SDS011;42392;42.648;27.652;2024-02-21T07:37:29;107.82;;;72.45;;
56493;SDS011;42392;42.648;27.652;2024-02-21T07:39:35;99.18;;;69.15;;
56493;SDS011;42392;42.648;27.652;2024-02-21T07:41:41;98.90;;;67.55;;
56493;SDS011;42392;42.648;27.652;2024-02-21T07:43:46;137.32;;;88.88;;
56493;SDS011;42392;42.648;27.652;2024-02-21T07:45:50;134.63;;;93.97;;
56493;SDS011;42392;42.648;27.652;2024-02-21T07:48:07;106.93;;;73.05;;
56493;SDS011;42392;42.648;27.652;2024-02-21T07:50:44;119.13;;;81.90;;
56493;SDS011;42392;42.648;27.652;2024-02-21T07:52:46;106.75;;;75.88;;
56493;SDS011;42392;42.648;27.652;2024-02-21T07:54:48;116.63;;;87.43;;
56493;SDS011;42392;42.648;27.652;2024-02-21T07:56:50;168.57;;;108.13;;
56493;SDS011;42392;42.648;27.652;2024-02-21T07:58:52;113.80;;;74.70;;
56493;SDS011;42392;42.648;27.652;2024-02-21T08:00:54;94.35;;;61.42;;
56493;SDS011;42392;42.648;27.652;2024-02-21T08:02:57;113.45;;;75.88;;
56493;SDS011;42392;42.648;27.652;2024-02-21T08:07:05;137.88;;;89.47;;
56493;SDS011;42392;42.648;27.652;2024-02-21T08:09:07;115.75;;;74.03;;
56493;SDS011;42392;42.648;27.652;2024-02-21T08:11:10;118.40;;;80.47;;
56493;SDS011;42392;42.648;27.652;2024-02-21T08:13:12;125.00;;;81.07;;
56493;SDS011;42392;42.648;27.652;2024-02-21T08:15:14;96.50;;;59.13;;
56493;SDS011;42392;42.648;27.652;2024-02-21T08:17:17;65.82;;;37.35;;
56493;SDS011;42392;42.648;27.652;2024-02-21T08:19:19;91.03;;;51.55;;
56493;SDS011;42392;42.648;27.652;2024-02-21T08:21:22;57.88;;;36.45;;
56493;SDS011;42392;42.648;27.652;2024-02-21T08:23:24;57.10;;;34.88;;
56493;SDS011;42392;42.648;27.652;2024-02-21T08:25:26;56.85;;;35.58;;
56493;SDS011;42392;42.648;27.652;2024-02-21T08:27:28;66.30;;;41.72;;
56493;SDS011;42392;42.648;27.652;2024-02-21T08:29:30;94.63;;;62.13;;
56493;SDS011;42392;42.648;27.652;2024-02-21T08:31:32;32.40;;;19.27;;
56493;SDS011;42392;42.648;27.652;2024-02-21T08:33:36;31.70;;;17.05;;
56493;SDS011;42392;42.648;27.652;2024-02-21T08:35:38;22.83;;;13.00;;
56493;SDS011;42392;42.648;27.652;2024-02-21T08:37:40;24.65;;;14.18;;
56493;SDS011;42392;42.648;27.652;2024-02-21T08:39:44;27.73;;;15.43;;
56493;SDS011;42392;42.648;27.652;2024-02-21T08:41:46;25.02;;;13.80;;
56493;SDS011;42392;42.648;27.652;2024-02-21T08:43:58;30.52;;;17.08;;
56493;SDS011;42392;42.648;27.652;2024-02-21T08:46:00;37.17;;;19.98;;
56493;SDS011;42392;42.648;27.652;2024-02-21T08:48:02;35.78;;;21.58;;
56493;SDS011;42392;42.648;27.652;2024-02-21T08:50:05;32.40;;;19.90;;
56493;SDS011;42392;42.648;27.652;2024-02-21T08:52:19;37.78;;;20.48;;
56493;SDS011;42392;42.648;27.652;2024-02-21T08:54:21;41.22;;;21.88;;
56493;SDS011;42392;42.648;27.652;2024-02-21T08:56:23;55.08;;;28.08;;
56493;SDS011;42392;42.648;27.652;2024-02-21T08:58:25;44.80;;;23.45;;
56493;SDS011;42392;42.648;27.652;2024-02-21T09:00:28;47.08;;;25.98;;
56493;SDS011;42392;42.648;27.652;2024-02-21T09:02:30;32.90;;;18.15;;
56493;SDS011;42392;42.648;27.652;2024-02-21T09:04:32;34.67;;;20.45;;
56493;SDS011;42392;42.648;27.652;2024-02-21T09:06:35;31.80;;;18.50;;
56493;SDS011;42392;42.648;27.652;2024-02-21T09:08:40;33.22;;;19.55;;
56493;SDS011;42392;42.648;27.652;2024-02-21T09:10:43;31.35;;;18.63;;
56493;SDS011;42392;42.648;27.652;2024-02-21T09:12:45;39.95;;;23.42;;
56493;SDS011;42392;42.648;27.652;2024-02-21T09:14:47;37.72;;;21.70;;
56493;SDS011;42392;42.648;27.652;2024-02-21T09:16:51;32.55;;;19.92;;
56493;SDS011;42392;42.648;27.652;2024-02-21T09:18:54;28.25;;;18.95;;
56493;SDS011;42392;42.648;27.652;2024-02-21T09:20:56;32.97;;;20.17;;
56493;SDS011;42392;42.648;27.652;2024-02-21T09:22:58;33.42;;;19.60;;
56493;SDS011;42392;42.648;27.652;2024-02-21T09:25:01;28.17;;;17.02;;
56493;SDS011;42392;42.648;27.652;2024-02-21T09:27:05;32.38;;;18.67;;
56493;SDS011;42392;42.648;27.652;2024-02-21T09:29:07;24.77;;;14.10;;
56493;SDS011;42392;42.648;27.652;2024-02-21T09:31:10;24.38;;;12.48;;
56493;SDS011;42392;42.648;27.652;2024-02-21T09:33:13;24.88;;;13.63;;
56493;SDS011;42392;42.648;27.652;2024-02-21T09:35:30;21.58;;;12.10;;
56493;SDS011;42392;42.648;27.652;2024-02-21T09:37:35;21.65;;;11.73;;
56493;SDS011;42392;42.648;27.652;2024-02-21T09:39:37;23.98;;;14.20;;
56493;SDS011;42392;42.648;27.652;2024-02-21T09:41:41;26.55;;;15.77;;
56493;SDS011;42392;42.648;27.652;2024-02-21T09:43:49;20.02;;;11.02;;
56493;SDS011;42392;42.648;27.652;2024-02-21T09:45:52;24.40;;;13.48;;
56493;SDS011;42392;42.648;27.652;2024-02-21T09:50:12;18.58;;;9.52;;
56493;SDS011;42392;42.648;27.652;2024-02-21T09:52:16;23.55;;;13.77;;
56493;SDS011;42392;42.648;27.652;2024-02-21T09:54:19;22.48;;;11.57;;
56493;SDS011;42392;42.648;27.652;2024-02-21T09:56:22;30.80;;;17.58;;
56493;SDS011;42392;42.648;27.652;2024-02-21T09:58:25;34.83;;;19.35;;
56493;SDS011;42392;42.648;27.652;2024-02-21T10:00:29;30.70;;;18.47;;
56493;SDS011;42392;42.648;27.652;2024-02-21T10:02:34;32.35;;;18.15;;
56493;SDS011;42392;42.648;27.652;2024-02-21T10:04:36;33.58;;;19.75;;
56493;SDS011;42392;42.648;27.652;2024-02-21T10:06:39;34.65;;;19.27;;
56493;SDS011;42392;42.648;27.652;2024-02-21T10:08:41;31.25;;;17.40;;
56493;SDS011;42392;42.648;27.652;2024-02-21T10:10:44;33.35;;;18.25;;
56493;SDS011;42392;42.648;27.652;2024-02-21T10:12:52;29.55;;;15.65;;
56493;SDS011;42392;42.648;27.652;2024-02-21T10:15:02;28.05;;;16.83;;
56493;SDS011;42392;42.648;27.652;2024-02-21T10:17:06;29.15;;;14.57;;
56493;SDS011;42392;42.648;27.652;2024-02-21T10:19:18;30.52;;;15.90;;
56493;SDS011;42392;42.648;27.652;2024-02-21T10:21:21;29.25;;;15.60;;
56493;SDS011;42392;42.648;27.652;2024-02-21T10:23:23;32.75;;;15.43;;
56493;SDS011;42392;42.648;27.652;2024-02-21T10:25:25;35.30;;;16.00;;
56493;SDS011;42392;42.648;27.652;2024-02-21T10:27:27;35.97;;;18.83;;
56493;SDS011;42392;42.648;27.652;2024-02-21T10:29:30;31.98;;;17.77;;
56493;SDS011;42392;42.648;27.652;2024-02-21T10:31:33;39.80;;;19.17;;
56493;SDS011;42392;42.648;27.652;2024-02-21T10:33:35;29.83;;;14.07;;
56493;SDS011;42392;42.648;27.652;2024-02-21T10:35:37;33.17;;;17.83;;
56493;SDS011;42392;42.648;27.652;2024-02-21T10:37:40;35.42;;;18.52;;
56493;SDS011;42392;42.648;27.652;2024-02-21T10:39:42;31.90;;;15.13;;
56493;SDS011;42392;42.648;27.652;2024-02-21T10:41:46;28.15;;;13.40;;
56493;SDS011;42392;42.648;27.652;2024-02-21T10:43:52;34.80;;;18.80;;
56493;SDS011;42392;42.648;27.652;2024-02-21T10:45:56;32.92;;;18.23;;
56493;SDS011;42392;42.648;27.652;2024-02-21T10:48:10;36.60;;;19.38;;
56493;SDS011;42392;42.648;27.652;2024-02-21T10:50:17;34.35;;;17.13;;
56493;SDS011;42392;42.648;27.652;2024-02-21T10:54:48;46.72;;;26.30;;
56493;SDS011;42392;42.648;27.652;2024-02-21T10:57:02;40.53;;;22.50;;
56493;SDS011;42392;42.648;27.652;2024-02-21T10:59:05;38.85;;;21.17;;
56493;SDS011;42392;42.648;27.652;2024-02-21T11:01:08;38.67;;;21.13;;
56493;SDS011;42392;42.648;27.652;2024-02-21T11:03:11;39.47;;;23.48;;
56493;SDS011;42392;42.648;27.652;2024-02-21T11:05:14;39.15;;;22.10;;
56493;SDS011;42392;42.648;27.652;2024-02-21T11:07:16;38.20;;;18.73;;
56493;SDS011;42392;42.648;27.652;2024-02-21T11:09:29;37.58;;;19.45;;
56493;SDS011;42392;42.648;27.652;2024-02-21T11:11:35;36.95;;;19.17;;
56493;SDS011;42392;42.648;27.652;2024-02-21T11:13:41;39.55;;;21.13;;
56493;SDS011;42392;42.648;27.652;2024-02-21T11:15:45;34.60;;;18.23;;
56493;SDS011;42392;42.648;27.652;2024-02-21T11:17:55;32.13;;;16.45;;
56493;SDS011;42392;42.648;27.652;2024-02-21T11:20:14;34.03;;;17.77;;
56493;SDS011;42392;42.648;27.652;2024-02-21T11:22:17;33.95;;;15.68;;
56493;SDS011;42392;42.648;27.652;2024-02-21T11:24:28;35.03;;;16.90;;
56493;SDS011;42392;42.648;27.652;2024-02-21T11:26:36;29.05;;;15.13;;
56493;SDS011;42392;42.648;27.652;2024-02-21T11:28:39;33.85;;;18.25;;
56493;SDS011;42392;42.648;27.652;2024-02-21T11:30:42;34.38;;;16.98;;
56493;SDS011;42392;42.648;27.652;2024-02-21T11:32:45;38.88;;;18.23;;
56493;SDS011;42392;42.648;27.652;2024-02-21T11:34:59;33.33;;;16.77;;
56493;SDS011;42392;42.648;27.652;2024-02-21T11:37:14;33.08;;;16.85;;
56493;SDS011;42392;42.648;27.652;2024-02-21T11:39:24;43.33;;;24.52;;
56493;SDS011;42392;42.648;27.652;2024-02-21T11:41:27;39.75;;;22.55;;
56493;SDS011;42392;42.648;27.652;2024-02-21T11:43:29;44.38;;;25.50;;
56493;SDS011;42392;42.648;27.652;2024-02-21T11:45:31;47.80;;;26.27;;
56493;SDS011;42392;42.648;27.652;2024-02-21T11:47:36;63.80;;;34.58;;
56493;SDS011;42392;42.648;27.652;2024-02-21T11:49:47;33.85;;;17.80;;
56493;SDS011;42392;42.648;27.652;2024-02-21T11:52:00;34.47;;;18.95;;
56493;SDS011;42392;42.648;27.652;2024-02-21T11:54:05;36.08;;;19.60;;
56493;SDS011;42392;42.648;27.652;2024-02-21T11:56:08;40.67;;;23.48;;
56493;SDS011;42392;42.648;27.652;2024-02-21T11:58:10;36.63;;;21.98;;
56493;SDS011;42392;42.648;27.652;2024-02-21T12:00:15;37.08;;;17.30;;